sensor_id;sensor_type;location;lat;lon;timestamp;P1;durP1;ratioP1;P2;durP2;ratioP2
27957;SDS011;15295;42.658;23.374;2023-04-09T00:00:14;23.98;;;16.73;;
27957;SDS011;15295;42.658;23.374;2023-04-09T00:02:42;23.70;;;16.48;;
27957;SDS011;15295;42.658;23.374;2023-04-09T00:05:08;23.45;;;16.00;;
27957;SDS011;15295;42.658;23.374;2023-04-09T00:07:33;24.02;;;15.63;;
27957;SDS011;15295;42.658;23.374;2023-04-09T00:09:58;23.88;;;15.68;;
27957;SDS011;15295;42.658;23.374;2023-04-09T00:12:24;23.95;;;16.60;;
27957;SDS011;15295;42.658;23.374;2023-04-09T00:14:49;23.23;;;15.70;;
27957;SDS011;15295;42.658;23.374;2023-04-09T00:17:15;21.70;;;15.02;;
27957;SDS011;15295;42.658;23.374;2023-04-09T00:19:41;22.63;;;15.25;;
27957;SDS011;15295;42.658;23.374;2023-04-09T00:22:06;19.45;;;14.23;;
27957;SDS011;15295;42.658;23.374;2023-04-09T00:24:31;20.95;;;14.40;;
27957;SDS011;15295;42.658;23.374;2023-04-09T00:26:57;20.10;;;14.15;;
27957;SDS011;15295;42.658;23.374;2023-04-09T00:29:22;23.75;;;15.18;;
27957;SDS011;15295;42.658;23.374;2023-04-09T00:31:48;19.52;;;14.13;;
27957;SDS011;15295;42.658;23.374;2023-04-09T00:34:13;19.98;;;14.75;;
27957;SDS011;15295;42.658;23.374;2023-04-09T00:36:38;20.02;;;14.05;;
27957;SDS011;15295;42.658;23.374;2023-04-09T00:39:10;21.10;;;14.57;;
27957;SDS011;15295;42.658;23.374;2023-04-09T00:41:37;20.65;;;14.05;;
27957;SDS011;15295;42.658;23.374;2023-04-09T00:44:07;21.50;;;14.57;;
27957;SDS011;15295;42.658;23.374;2023-04-09T00:46:32;21.75;;;14.52;;
27957;SDS011;15295;42.658;23.374;2023-04-09T00:48:58;20.05;;;13.95;;
27957;SDS011;15295;42.658;23.374;2023-04-09T00:51:23;21.08;;;13.88;;
27957;SDS011;15295;42.658;23.374;2023-04-09T00:53:56;18.80;;;13.00;;
27957;SDS011;15295;42.658;23.374;2023-04-09T00:56:22;17.02;;;12.60;;
27957;SDS011;15295;42.658;23.374;2023-04-09T00:58:48;18.83;;;13.05;;
27957;SDS011;15295;42.658;23.374;2023-04-09T01:01:14;19.40;;;13.85;;
27957;SDS011;15295;42.658;23.374;2023-04-09T01:03:39;18.83;;;13.52;;
27957;SDS011;15295;42.658;23.374;2023-04-09T01:06:16;19.55;;;13.10;;
27957;SDS011;15295;42.658;23.374;2023-04-09T01:16:54;20.95;;;14.90;;
27957;SDS011;15295;42.658;23.374;2023-04-09T01:22:09;18.88;;;13.43;;
27957;SDS011;15295;42.658;23.374;2023-04-09T01:27:43;17.42;;;13.35;;
27957;SDS011;15295;42.658;23.374;2023-04-09T01:30:19;16.90;;;12.88;;
27957;SDS011;15295;42.658;23.374;2023-04-09T01:32:45;19.42;;;13.75;;
27957;SDS011;15295;42.658;23.374;2023-04-09T01:35:11;19.90;;;13.65;;
27957;SDS011;15295;42.658;23.374;2023-04-09T01:37:38;19.10;;;14.40;;
27957;SDS011;15295;42.658;23.374;2023-04-09T01:40:05;21.10;;;13.88;;
27957;SDS011;15295;42.658;23.374;2023-04-09T01:42:31;19.02;;;14.15;;
27957;SDS011;15295;42.658;23.374;2023-04-09T01:45:04;22.48;;;14.25;;
27957;SDS011;15295;42.658;23.374;2023-04-09T01:47:30;19.67;;;14.80;;
27957;SDS011;15295;42.658;23.374;2023-04-09T01:49:57;20.83;;;14.85;;
27957;SDS011;15295;42.658;23.374;2023-04-09T01:52:25;20.38;;;13.95;;
27957;SDS011;15295;42.658;23.374;2023-04-09T01:54:54;19.10;;;13.15;;
27957;SDS011;15295;42.658;23.374;2023-04-09T01:57:20;19.00;;;13.50;;
27957;SDS011;15295;42.658;23.374;2023-04-09T01:59:45;18.70;;;13.80;;
27957;SDS011;15295;42.658;23.374;2023-04-09T02:02:11;21.27;;;14.27;;
27957;SDS011;15295;42.658;23.374;2023-04-09T02:04:47;19.00;;;13.50;;
27957;SDS011;15295;42.658;23.374;2023-04-09T02:07:22;21.55;;;14.57;;
27957;SDS011;15295;42.658;23.374;2023-04-09T02:12:39;20.00;;;13.75;;
27957;SDS011;15295;42.658;23.374;2023-04-09T02:15:09;22.38;;;13.48;;
27957;SDS011;15295;42.658;23.374;2023-04-09T02:17:37;22.38;;;14.18;;
27957;SDS011;15295;42.658;23.374;2023-04-09T02:20:03;20.08;;;14.43;;
27957;SDS011;15295;42.658;23.374;2023-04-09T02:22:28;20.52;;;14.32;;
27957;SDS011;15295;42.658;23.374;2023-04-09T02:24:57;18.65;;;13.52;;
27957;SDS011;15295;42.658;23.374;2023-04-09T02:27:22;24.17;;;14.43;;
27957;SDS011;15295;42.658;23.374;2023-04-09T02:29:48;19.27;;;14.50;;
27957;SDS011;15295;42.658;23.374;2023-04-09T02:32:14;21.17;;;13.93;;
27957;SDS011;15295;42.658;23.374;2023-04-09T02:34:40;22.63;;;14.88;;
27957;SDS011;15295;42.658;23.374;2023-04-09T02:37:08;20.63;;;14.63;;
27957;SDS011;15295;42.658;23.374;2023-04-09T02:39:33;20.90;;;14.93;;
27957;SDS011;15295;42.658;23.374;2023-04-09T02:41:59;21.38;;;15.27;;
27957;SDS011;15295;42.658;23.374;2023-04-09T02:44:25;23.48;;;15.40;;
27957;SDS011;15295;42.658;23.374;2023-04-09T02:46:50;24.35;;;16.15;;
27957;SDS011;15295;42.658;23.374;2023-04-09T02:49:21;22.88;;;15.77;;
27957;SDS011;15295;42.658;23.374;2023-04-09T02:51:46;24.52;;;16.10;;
27957;SDS011;15295;42.658;23.374;2023-04-09T02:54:11;22.75;;;16.15;;
27957;SDS011;15295;42.658;23.374;2023-04-09T02:56:37;27.02;;;17.17;;
27957;SDS011;15295;42.658;23.374;2023-04-09T02:59:02;24.35;;;16.73;;
27957;SDS011;15295;42.658;23.374;2023-04-09T03:01:28;25.58;;;17.58;;
27957;SDS011;15295;42.658;23.374;2023-04-09T03:03:54;26.67;;;18.15;;
27957;SDS011;15295;42.658;23.374;2023-04-09T03:06:20;27.30;;;18.15;;
27957;SDS011;15295;42.658;23.374;2023-04-09T03:08:45;27.00;;;17.85;;
27957;SDS011;15295;42.658;23.374;2023-04-09T03:11:13;28.25;;;18.60;;
27957;SDS011;15295;42.658;23.374;2023-04-09T03:13:40;26.98;;;17.52;;
27957;SDS011;15295;42.658;23.374;2023-04-09T03:16:10;28.23;;;18.50;;
27957;SDS011;15295;42.658;23.374;2023-04-09T03:18:36;28.50;;;18.55;;
27957;SDS011;15295;42.658;23.374;2023-04-09T03:21:07;28.52;;;19.15;;
27957;SDS011;15295;42.658;23.374;2023-04-09T03:23:34;29.83;;;19.40;;
27957;SDS011;15295;42.658;23.374;2023-04-09T03:26:02;28.23;;;19.33;;
27957;SDS011;15295;42.658;23.374;2023-04-09T03:28:29;28.75;;;19.90;;
27957;SDS011;15295;42.658;23.374;2023-04-09T03:30:55;31.90;;;20.08;;
27957;SDS011;15295;42.658;23.374;2023-04-09T03:33:20;28.13;;;19.20;;
27957;SDS011;15295;42.658;23.374;2023-04-09T03:35:46;29.05;;;19.30;;
27957;SDS011;15295;42.658;23.374;2023-04-09T03:38:11;29.52;;;19.77;;
27957;SDS011;15295;42.658;23.374;2023-04-09T03:40:37;27.48;;;19.90;;
27957;SDS011;15295;42.658;23.374;2023-04-09T03:43:02;27.17;;;18.95;;
27957;SDS011;15295;42.658;23.374;2023-04-09T03:45:31;31.20;;;19.80;;
27957;SDS011;15295;42.658;23.374;2023-04-09T03:48:02;31.88;;;19.88;;
27957;SDS011;15295;42.658;23.374;2023-04-09T03:50:27;28.35;;;19.48;;
27957;SDS011;15295;42.658;23.374;2023-04-09T03:52:53;31.33;;;20.40;;
27957;SDS011;15295;42.658;23.374;2023-04-09T03:55:21;28.63;;;20.17;;
27957;SDS011;15295;42.658;23.374;2023-04-09T03:57:53;29.27;;;20.02;;
27957;SDS011;15295;42.658;23.374;2023-04-09T04:00:20;31.48;;;20.65;;
27957;SDS011;15295;42.658;23.374;2023-04-09T04:02:50;28.33;;;19.60;;
27957;SDS011;15295;42.658;23.374;2023-04-09T04:05:21;31.88;;;20.02;;
27957;SDS011;15295;42.658;23.374;2023-04-09T04:07:47;27.33;;;19.67;;
27957;SDS011;15295;42.658;23.374;2023-04-09T04:10:12;29.27;;;20.23;;
27957;SDS011;15295;42.658;23.374;2023-04-09T04:12:38;31.60;;;20.05;;
27957;SDS011;15295;42.658;23.374;2023-04-09T04:15:03;32.75;;;20.30;;
27957;SDS011;15295;42.658;23.374;2023-04-09T04:17:35;30.20;;;20.45;;
27957;SDS011;15295;42.658;23.374;2023-04-09T04:20:00;29.75;;;19.80;;
27957;SDS011;15295;42.658;23.374;2023-04-09T04:22:27;30.27;;;21.08;;
27957;SDS011;15295;42.658;23.374;2023-04-09T04:24:52;31.23;;;20.13;;
27957;SDS011;15295;42.658;23.374;2023-04-09T04:27:20;33.45;;;20.42;;
27957;SDS011;15295;42.658;23.374;2023-04-09T04:29:45;28.08;;;19.80;;
27957;SDS011;15295;42.658;23.374;2023-04-09T04:32:10;30.55;;;20.40;;
27957;SDS011;15295;42.658;23.374;2023-04-09T04:34:36;31.20;;;20.58;;
27957;SDS011;15295;42.658;23.374;2023-04-09T04:37:03;30.65;;;20.77;;
27957;SDS011;15295;42.658;23.374;2023-04-09T04:39:29;28.73;;;19.60;;
27957;SDS011;15295;42.658;23.374;2023-04-09T04:41:55;33.75;;;21.08;;
27957;SDS011;15295;42.658;23.374;2023-04-09T04:44:20;31.73;;;20.77;;
27957;SDS011;15295;42.658;23.374;2023-04-09T04:46:49;31.08;;;20.40;;
27957;SDS011;15295;42.658;23.374;2023-04-09T04:49:15;30.92;;;20.40;;
27957;SDS011;15295;42.658;23.374;2023-04-09T04:51:40;32.47;;;20.60;;
27957;SDS011;15295;42.658;23.374;2023-04-09T04:54:06;32.60;;;20.60;;
27957;SDS011;15295;42.658;23.374;2023-04-09T04:56:31;32.35;;;20.75;;
27957;SDS011;15295;42.658;23.374;2023-04-09T04:58:59;34.10;;;21.08;;
27957;SDS011;15295;42.658;23.374;2023-04-09T05:01:28;31.75;;;22.30;;
27957;SDS011;15295;42.658;23.374;2023-04-09T05:03:53;33.00;;;21.48;;
27957;SDS011;15295;42.658;23.374;2023-04-09T05:06:19;34.80;;;22.08;;
27957;SDS011;15295;42.658;23.374;2023-04-09T05:08:44;37.08;;;23.00;;
27957;SDS011;15295;42.658;23.374;2023-04-09T05:11:10;42.92;;;23.00;;
27957;SDS011;15295;42.658;23.374;2023-04-09T05:13:36;37.40;;;22.98;;
27957;SDS011;15295;42.658;23.374;2023-04-09T05:16:02;35.35;;;22.63;;
27957;SDS011;15295;42.658;23.374;2023-04-09T05:18:27;37.78;;;23.52;;
27957;SDS011;15295;42.658;23.374;2023-04-09T05:20:53;37.35;;;23.38;;
27957;SDS011;15295;42.658;23.374;2023-04-09T05:23:18;36.83;;;23.08;;
27957;SDS011;15295;42.658;23.374;2023-04-09T05:25:44;36.67;;;23.08;;
27957;SDS011;15295;42.658;23.374;2023-04-09T05:28:10;35.70;;;22.38;;
27957;SDS011;15295;42.658;23.374;2023-04-09T05:30:35;34.83;;;21.30;;
27957;SDS011;15295;42.658;23.374;2023-04-09T05:33:01;32.72;;;19.85;;
27957;SDS011;15295;42.658;23.374;2023-04-09T05:35:26;33.45;;;20.35;;
27957;SDS011;15295;42.658;23.374;2023-04-09T05:37:51;30.70;;;19.25;;
27957;SDS011;15295;42.658;23.374;2023-04-09T05:40:17;30.58;;;19.02;;
27957;SDS011;15295;42.658;23.374;2023-04-09T05:42:44;36.97;;;21.13;;
27957;SDS011;15295;42.658;23.374;2023-04-09T05:45:11;33.00;;;20.95;;
27957;SDS011;15295;42.658;23.374;2023-04-09T05:47:38;31.33;;;20.45;;
27957;SDS011;15295;42.658;23.374;2023-04-09T05:50:04;31.17;;;19.45;;
27957;SDS011;15295;42.658;23.374;2023-04-09T05:52:31;35.00;;;20.25;;
27957;SDS011;15295;42.658;23.374;2023-04-09T05:54:56;34.75;;;20.90;;
27957;SDS011;15295;42.658;23.374;2023-04-09T05:57:25;34.20;;;20.60;;
27957;SDS011;15295;42.658;23.374;2023-04-09T05:59:51;35.42;;;20.92;;
27957;SDS011;15295;42.658;23.374;2023-04-09T06:02:17;34.95;;;20.88;;
27957;SDS011;15295;42.658;23.374;2023-04-09T06:04:42;32.58;;;19.17;;
27957;SDS011;15295;42.658;23.374;2023-04-09T06:07:08;33.35;;;19.73;;
27957;SDS011;15295;42.658;23.374;2023-04-09T06:09:35;31.60;;;19.73;;
27957;SDS011;15295;42.658;23.374;2023-04-09T06:12:00;31.02;;;19.20;;
27957;SDS011;15295;42.658;23.374;2023-04-09T06:14:26;43.85;;;24.90;;
27957;SDS011;15295;42.658;23.374;2023-04-09T06:16:51;45.08;;;26.38;;
27957;SDS011;15295;42.658;23.374;2023-04-09T06:19:23;32.63;;;20.95;;
27957;SDS011;15295;42.658;23.374;2023-04-09T06:21:48;32.22;;;19.42;;
27957;SDS011;15295;42.658;23.374;2023-04-09T06:24:14;29.20;;;18.83;;
27957;SDS011;15295;42.658;23.374;2023-04-09T06:26:39;35.10;;;19.08;;
27957;SDS011;15295;42.658;23.374;2023-04-09T06:29:05;34.70;;;19.45;;
27957;SDS011;15295;42.658;23.374;2023-04-09T06:31:31;31.95;;;19.10;;
27957;SDS011;15295;42.658;23.374;2023-04-09T06:33:57;29.40;;;17.67;;
27957;SDS011;15295;42.658;23.374;2023-04-09T06:36:22;28.42;;;16.58;;
27957;SDS011;15295;42.658;23.374;2023-04-09T06:38:56;25.55;;;15.93;;
27957;SDS011;15295;42.658;23.374;2023-04-09T06:41:23;27.70;;;15.93;;
27957;SDS011;15295;42.658;23.374;2023-04-09T06:43:50;26.88;;;16.23;;
27957;SDS011;15295;42.658;23.374;2023-04-09T06:46:16;29.83;;;17.88;;
27957;SDS011;15295;42.658;23.374;2023-04-09T06:48:45;29.98;;;17.67;;
27957;SDS011;15295;42.658;23.374;2023-04-09T06:51:11;29.38;;;17.33;;
27957;SDS011;15295;42.658;23.374;2023-04-09T06:53:37;27.63;;;16.58;;
27957;SDS011;15295;42.658;23.374;2023-04-09T06:56:03;24.42;;;16.05;;
27957;SDS011;15295;42.658;23.374;2023-04-09T06:58:38;23.60;;;13.23;;
27957;SDS011;15295;42.658;23.374;2023-04-09T07:01:03;19.08;;;12.77;;
27957;SDS011;15295;42.658;23.374;2023-04-09T07:03:29;21.05;;;12.82;;
27957;SDS011;15295;42.658;23.374;2023-04-09T07:05:55;19.35;;;13.45;;
27957;SDS011;15295;42.658;23.374;2023-04-09T07:08:21;21.90;;;13.90;;
27957;SDS011;15295;42.658;23.374;2023-04-09T07:10:47;21.75;;;14.35;;
27957;SDS011;15295;42.658;23.374;2023-04-09T07:13:13;21.15;;;14.52;;
27957;SDS011;15295;42.658;23.374;2023-04-09T07:15:38;18.80;;;12.73;;
27957;SDS011;15295;42.658;23.374;2023-04-09T07:20:39;19.20;;;12.77;;
27957;SDS011;15295;42.658;23.374;2023-04-09T07:23:05;17.13;;;12.27;;
27957;SDS011;15295;42.658;23.374;2023-04-09T07:25:30;18.85;;;12.27;;
27957;SDS011;15295;42.658;23.374;2023-04-09T07:27:56;19.48;;;13.55;;
27957;SDS011;15295;42.658;23.374;2023-04-09T07:30:21;21.75;;;12.95;;
27957;SDS011;15295;42.658;23.374;2023-04-09T07:32:47;19.20;;;12.85;;
27957;SDS011;15295;42.658;23.374;2023-04-09T07:35:13;19.30;;;14.18;;
27957;SDS011;15295;42.658;23.374;2023-04-09T07:37:38;20.60;;;14.32;;
27957;SDS011;15295;42.658;23.374;2023-04-09T07:40:04;19.02;;;13.77;;
27957;SDS011;15295;42.658;23.374;2023-04-09T07:42:30;21.35;;;14.63;;
27957;SDS011;15295;42.658;23.374;2023-04-09T07:44:55;23.13;;;13.70;;
27957;SDS011;15295;42.658;23.374;2023-04-09T07:47:21;17.23;;;12.02;;
27957;SDS011;15295;42.658;23.374;2023-04-09T07:49:49;22.27;;;13.55;;
27957;SDS011;15295;42.658;23.374;2023-04-09T07:52:14;17.98;;;12.63;;
27957;SDS011;15295;42.658;23.374;2023-04-09T07:54:40;16.95;;;11.68;;
27957;SDS011;15295;42.658;23.374;2023-04-09T07:57:05;21.35;;;13.63;;
27957;SDS011;15295;42.658;23.374;2023-04-09T07:59:31;22.95;;;13.77;;
27957;SDS011;15295;42.658;23.374;2023-04-09T08:01:58;22.63;;;14.23;;
27957;SDS011;15295;42.658;23.374;2023-04-09T08:04:23;17.50;;;12.32;;
27957;SDS011;15295;42.658;23.374;2023-04-09T08:06:49;18.80;;;12.27;;
27957;SDS011;15295;42.658;23.374;2023-04-09T08:09:21;20.17;;;13.23;;
27957;SDS011;15295;42.658;23.374;2023-04-09T08:11:47;19.70;;;13.10;;
27957;SDS011;15295;42.658;23.374;2023-04-09T08:14:18;21.17;;;13.88;;
27957;SDS011;15295;42.658;23.374;2023-04-09T08:16:45;21.85;;;13.32;;
27957;SDS011;15295;42.658;23.374;2023-04-09T08:19:11;20.83;;;14.23;;
27957;SDS011;15295;42.658;23.374;2023-04-09T08:21:39;20.05;;;13.40;;
27957;SDS011;15295;42.658;23.374;2023-04-09T08:24:08;22.33;;;14.10;;
27957;SDS011;15295;42.658;23.374;2023-04-09T08:26:35;22.40;;;14.88;;
27957;SDS011;15295;42.658;23.374;2023-04-09T08:29:02;23.85;;;14.32;;
27957;SDS011;15295;42.658;23.374;2023-04-09T08:31:29;21.30;;;14.40;;
27957;SDS011;15295;42.658;23.374;2023-04-09T08:33:54;25.48;;;14.63;;
27957;SDS011;15295;42.658;23.374;2023-04-09T08:36:20;21.83;;;13.60;;
27957;SDS011;15295;42.658;23.374;2023-04-09T08:38:45;20.95;;;13.98;;
27957;SDS011;15295;42.658;23.374;2023-04-09T08:41:19;21.45;;;14.70;;
27957;SDS011;15295;42.658;23.374;2023-04-09T08:43:47;25.60;;;15.15;;
27957;SDS011;15295;42.658;23.374;2023-04-09T08:46:16;26.77;;;15.60;;
27957;SDS011;15295;42.658;23.374;2023-04-09T08:48:45;22.92;;;15.13;;
27957;SDS011;15295;42.658;23.374;2023-04-09T08:51:12;23.85;;;14.70;;
27957;SDS011;15295;42.658;23.374;2023-04-09T08:53:45;26.58;;;16.75;;
27957;SDS011;15295;42.658;23.374;2023-04-09T08:56:16;26.15;;;16.55;;
27957;SDS011;15295;42.658;23.374;2023-04-09T08:58:48;27.80;;;17.00;;
27957;SDS011;15295;42.658;23.374;2023-04-09T09:01:29;26.48;;;16.02;;
27957;SDS011;15295;42.658;23.374;2023-04-09T09:06:30;25.88;;;16.42;;
27957;SDS011;15295;42.658;23.374;2023-04-09T09:09:01;26.75;;;16.58;;
27957;SDS011;15295;42.658;23.374;2023-04-09T09:11:29;22.77;;;15.07;;
27957;SDS011;15295;42.658;23.374;2023-04-09T09:14:02;22.52;;;14.77;;
27957;SDS011;15295;42.658;23.374;2023-04-09T09:16:29;22.75;;;14.70;;
27957;SDS011;15295;42.658;23.374;2023-04-09T09:18:57;25.88;;;15.30;;
27957;SDS011;15295;42.658;23.374;2023-04-09T09:21:29;22.27;;;15.27;;
27957;SDS011;15295;42.658;23.374;2023-04-09T09:23:55;21.40;;;13.93;;
27957;SDS011;15295;42.658;23.374;2023-04-09T09:26:25;20.55;;;13.75;;
27957;SDS011;15295;42.658;23.374;2023-04-09T09:28:52;21.77;;;14.57;;
27957;SDS011;15295;42.658;23.374;2023-04-09T09:34:40;22.05;;;14.40;;
27957;SDS011;15295;42.658;23.374;2023-04-09T09:37:24;21.23;;;13.18;;
27957;SDS011;15295;42.658;23.374;2023-04-09T09:39:52;21.60;;;13.80;;
27957;SDS011;15295;42.658;23.374;2023-04-09T09:45:48;20.08;;;13.38;;
27957;SDS011;15295;42.658;23.374;2023-04-09T09:48:25;17.88;;;13.07;;
27957;SDS011;15295;42.658;23.374;2023-04-09T09:50:53;16.67;;;11.90;;
27957;SDS011;15295;42.658;23.374;2023-04-09T09:53:19;15.48;;;11.27;;
27957;SDS011;15295;42.658;23.374;2023-04-09T09:55:48;14.40;;;10.57;;
27957;SDS011;15295;42.658;23.374;2023-04-09T09:58:21;14.98;;;11.20;;
27957;SDS011;15295;42.658;23.374;2023-04-09T10:03:38;16.60;;;11.30;;
27957;SDS011;15295;42.658;23.374;2023-04-09T10:06:05;15.40;;;10.77;;
27957;SDS011;15295;42.658;23.374;2023-04-09T10:08:32;15.45;;;10.65;;
27957;SDS011;15295;42.658;23.374;2023-04-09T10:11:00;14.23;;;10.48;;
27957;SDS011;15295;42.658;23.374;2023-04-09T10:13:44;13.07;;;10.15;;
27957;SDS011;15295;42.658;23.374;2023-04-09T10:16:13;15.60;;;10.50;;
27957;SDS011;15295;42.658;23.374;2023-04-09T10:18:57;13.05;;;10.30;;
27957;SDS011;15295;42.658;23.374;2023-04-09T10:24:29;13.98;;;10.02;;
27957;SDS011;15295;42.658;23.374;2023-04-09T10:27:08;11.10;;;8.80;;
27957;SDS011;15295;42.658;23.374;2023-04-09T10:29:35;12.65;;;8.90;;
27957;SDS011;15295;42.658;23.374;2023-04-09T10:35:00;13.20;;;9.93;;
27957;SDS011;15295;42.658;23.374;2023-04-09T10:37:28;15.05;;;11.05;;
27957;SDS011;15295;42.658;23.374;2023-04-09T10:39:54;13.32;;;9.68;;
27957;SDS011;15295;42.658;23.374;2023-04-09T10:42:28;13.40;;;9.50;;
27957;SDS011;15295;42.658;23.374;2023-04-09T10:45:10;11.55;;;9.70;;
27957;SDS011;15295;42.658;23.374;2023-04-09T10:47:39;12.93;;;9.77;;
27957;SDS011;15295;42.658;23.374;2023-04-09T10:50:15;12.90;;;9.70;;
27957;SDS011;15295;42.658;23.374;2023-04-09T10:56:15;14.10;;;10.05;;
27957;SDS011;15295;42.658;23.374;2023-04-09T10:58:56;14.65;;;10.27;;
27957;SDS011;15295;42.658;23.374;2023-04-09T11:01:21;13.73;;;10.13;;
27957;SDS011;15295;42.658;23.374;2023-04-09T11:04:06;14.32;;;10.10;;
27957;SDS011;15295;42.658;23.374;2023-04-09T11:06:42;17.58;;;9.88;;
27957;SDS011;15295;42.658;23.374;2023-04-09T11:09:10;13.27;;;10.30;;
27957;SDS011;15295;42.658;23.374;2023-04-09T11:11:35;12.65;;;9.43;;
27957;SDS011;15295;42.658;23.374;2023-04-09T11:14:01;13.60;;;9.88;;
27957;SDS011;15295;42.658;23.374;2023-04-09T11:16:30;11.60;;;8.73;;
27957;SDS011;15295;42.658;23.374;2023-04-09T11:18:56;12.82;;;8.90;;
27957;SDS011;15295;42.658;23.374;2023-04-09T11:21:25;12.85;;;9.45;;
27957;SDS011;15295;42.658;23.374;2023-04-09T11:23:52;12.70;;;9.30;;
27957;SDS011;15295;42.658;23.374;2023-04-09T11:26:22;12.52;;;9.85;;
27957;SDS011;15295;42.658;23.374;2023-04-09T11:29:03;12.75;;;9.75;;
27957;SDS011;15295;42.658;23.374;2023-04-09T11:31:29;15.70;;;9.73;;
27957;SDS011;15295;42.658;23.374;2023-04-09T11:33:55;13.35;;;9.77;;
27957;SDS011;15295;42.658;23.374;2023-04-09T11:36:21;13.75;;;10.63;;
27957;SDS011;15295;42.658;23.374;2023-04-09T11:38:53;13.15;;;10.05;;
27957;SDS011;15295;42.658;23.374;2023-04-09T11:44:06;13.23;;;9.88;;
27957;SDS011;15295;42.658;23.374;2023-04-09T11:46:33;12.00;;;7.35;;
27957;SDS011;15295;42.658;23.374;2023-04-09T11:48:59;8.30;;;6.55;;
27957;SDS011;15295;42.658;23.374;2023-04-09T11:51:26;6.38;;;5.47;;
27957;SDS011;15295;42.658;23.374;2023-04-09T11:53:53;7.25;;;5.85;;
27957;SDS011;15295;42.658;23.374;2023-04-09T11:56:19;8.55;;;6.00;;
27957;SDS011;15295;42.658;23.374;2023-04-09T11:58:45;7.95;;;6.15;;
27957;SDS011;15295;42.658;23.374;2023-04-09T12:01:11;6.70;;;5.43;;
27957;SDS011;15295;42.658;23.374;2023-04-09T12:03:51;6.80;;;5.80;;
27957;SDS011;15295;42.658;23.374;2023-04-09T12:06:21;7.28;;;5.97;;
27957;SDS011;15295;42.658;23.374;2023-04-09T12:11:31;8.52;;;6.57;;
27957;SDS011;15295;42.658;23.374;2023-04-09T12:16:51;10.38;;;7.32;;
27957;SDS011;15295;42.658;23.374;2023-04-09T12:19:19;11.07;;;7.03;;
27957;SDS011;15295;42.658;23.374;2023-04-09T12:21:50;11.95;;;7.05;;
27957;SDS011;15295;42.658;23.374;2023-04-09T12:24:23;12.10;;;7.25;;
27957;SDS011;15295;42.658;23.374;2023-04-09T12:26:57;7.05;;;5.50;;
27957;SDS011;15295;42.658;23.374;2023-04-09T12:29:24;8.77;;;6.72;;
27957;SDS011;15295;42.658;23.374;2023-04-09T12:31:54;8.75;;;6.75;;
27957;SDS011;15295;42.658;23.374;2023-04-09T12:34:31;7.90;;;5.63;;
27957;SDS011;15295;42.658;23.374;2023-04-09T12:36:59;7.15;;;5.82;;
27957;SDS011;15295;42.658;23.374;2023-04-09T12:39:28;7.45;;;6.10;;
27957;SDS011;15295;42.658;23.374;2023-04-09T12:41:53;8.85;;;7.15;;
27957;SDS011;15295;42.658;23.374;2023-04-09T12:44:21;9.90;;;6.38;;
27957;SDS011;15295;42.658;23.374;2023-04-09T12:46:46;9.82;;;6.28;;
27957;SDS011;15295;42.658;23.374;2023-04-09T12:49:12;8.43;;;6.05;;
27957;SDS011;15295;42.658;23.374;2023-04-09T12:51:38;9.45;;;7.03;;
27957;SDS011;15295;42.658;23.374;2023-04-09T13:40:53;19.05;;;12.65;;
27957;SDS011;15295;42.658;23.374;2023-04-09T13:43:27;7.50;;;6.18;;
27957;SDS011;15295;42.658;23.374;2023-04-09T14:04:14;12.85;;;9.27;;
27957;SDS011;15295;42.658;23.374;2023-04-09T14:20:04;11.48;;;6.63;;
27957;SDS011;15295;42.658;23.374;2023-04-09T14:22:33;10.90;;;7.63;;
27957;SDS011;15295;42.658;23.374;2023-04-09T14:28:01;11.82;;;7.68;;
27957;SDS011;15295;42.658;23.374;2023-04-09T15:15:39;12.65;;;8.85;;
27957;SDS011;15295;42.658;23.374;2023-04-09T15:18:08;10.00;;;7.18;;
27957;SDS011;15295;42.658;23.374;2023-04-09T15:20:37;18.08;;;10.20;;
27957;SDS011;15295;42.658;23.374;2023-04-09T15:23:05;22.08;;;13.30;;
27957;SDS011;15295;42.658;23.374;2023-04-09T15:25:40;10.13;;;7.57;;
27957;SDS011;15295;42.658;23.374;2023-04-09T15:28:21;13.45;;;8.93;;
27957;SDS011;15295;42.658;23.374;2023-04-09T15:31:03;11.43;;;8.02;;
27957;SDS011;15295;42.658;23.374;2023-04-09T15:33:28;12.23;;;7.90;;
27957;SDS011;15295;42.658;23.374;2023-04-09T15:35:57;11.95;;;8.75;;
27957;SDS011;15295;42.658;23.374;2023-04-09T15:38:23;14.27;;;8.70;;
27957;SDS011;15295;42.658;23.374;2023-04-09T15:40:53;11.45;;;8.35;;
27957;SDS011;15295;42.658;23.374;2023-04-09T15:43:20;10.30;;;8.10;;
27957;SDS011;15295;42.658;23.374;2023-04-09T15:45:53;12.30;;;9.60;;
27957;SDS011;15295;42.658;23.374;2023-04-09T15:48:19;13.57;;;9.75;;
27957;SDS011;15295;42.658;23.374;2023-04-09T15:50:45;15.93;;;11.25;;
27957;SDS011;15295;42.658;23.374;2023-04-09T15:53:11;17.90;;;11.00;;
27957;SDS011;15295;42.658;23.374;2023-04-09T15:55:39;14.68;;;11.55;;
27957;SDS011;15295;42.658;23.374;2023-04-09T15:58:06;19.25;;;12.60;;
27957;SDS011;15295;42.658;23.374;2023-04-09T16:00:31;15.23;;;11.50;;
27957;SDS011;15295;42.658;23.374;2023-04-09T16:02:57;17.42;;;12.18;;
27957;SDS011;15295;42.658;23.374;2023-04-09T16:05:35;15.40;;;12.25;;
27957;SDS011;15295;42.658;23.374;2023-04-09T16:08:09;25.92;;;17.90;;
27957;SDS011;15295;42.658;23.374;2023-04-09T16:10:35;45.22;;;27.70;;
27957;SDS011;15295;42.658;23.374;2023-04-09T16:13:01;21.15;;;15.10;;
27957;SDS011;15295;42.658;23.374;2023-04-09T16:15:27;20.10;;;14.80;;
27957;SDS011;15295;42.658;23.374;2023-04-09T16:17:53;17.38;;;13.10;;
27957;SDS011;15295;42.658;23.374;2023-04-09T16:20:19;22.73;;;15.52;;
27957;SDS011;15295;42.658;23.374;2023-04-09T16:25:23;22.58;;;15.48;;
27957;SDS011;15295;42.658;23.374;2023-04-09T16:27:49;22.33;;;16.00;;
27957;SDS011;15295;42.658;23.374;2023-04-09T16:30:14;22.20;;;14.57;;
27957;SDS011;15295;42.658;23.374;2023-04-09T16:32:40;19.23;;;14.32;;
27957;SDS011;15295;42.658;23.374;2023-04-09T16:35:06;20.45;;;14.88;;
27957;SDS011;15295;42.658;23.374;2023-04-09T16:37:31;22.90;;;15.63;;
27957;SDS011;15295;42.658;23.374;2023-04-09T16:39:59;22.45;;;14.85;;
27957;SDS011;15295;42.658;23.374;2023-04-09T16:42:24;24.73;;;16.08;;
27957;SDS011;15295;42.658;23.374;2023-04-09T16:44:51;22.05;;;15.02;;
27957;SDS011;15295;42.658;23.374;2023-04-09T16:47:17;23.88;;;15.77;;
27957;SDS011;15295;42.658;23.374;2023-04-09T16:49:42;27.02;;;15.05;;
27957;SDS011;15295;42.658;23.374;2023-04-09T16:52:07;23.60;;;15.90;;
27957;SDS011;15295;42.658;23.374;2023-04-09T16:54:33;26.50;;;17.25;;
27957;SDS011;15295;42.658;23.374;2023-04-09T16:56:58;53.25;;;32.00;;
27957;SDS011;15295;42.658;23.374;2023-04-09T16:59:25;24.08;;;17.42;;
27957;SDS011;15295;42.658;23.374;2023-04-09T17:01:51;29.83;;;17.05;;
27957;SDS011;15295;42.658;23.374;2023-04-09T17:04:16;27.90;;;19.17;;
27957;SDS011;15295;42.658;23.374;2023-04-09T17:06:42;26.83;;;17.13;;
27957;SDS011;15295;42.658;23.374;2023-04-09T17:09:08;26.20;;;17.10;;
27957;SDS011;15295;42.658;23.374;2023-04-09T17:11:33;23.10;;;14.27;;